sensor_id;sensor_type;location;lat;lon;timestamp;P1;durP1;ratioP1;P2;durP2;ratioP2
72095;SDS011;59968;51.084;16.748;2023-01-10T00:02:02;56.60;;;16.00;;
72095;SDS011;59968;51.084;16.748;2023-01-10T00:04:34;30.20;;;12.60;;
72095;SDS011;59968;51.084;16.748;2023-01-10T00:07:03;25.40;;;10.90;;
72095;SDS011;59968;51.084;16.748;2023-01-10T00:09:32;23.80;;;10.50;;
72095;SDS011;59968;51.084;16.748;2023-01-10T00:12:00;22.50;;;10.60;;
72095;SDS011;59968;51.084;16.748;2023-01-10T00:14:47;21.90;;;9.80;;
72095;SDS011;59968;51.084;16.748;2023-01-10T00:17:15;19.70;;;10.00;;
72095;SDS011;59968;51.084;16.748;2023-01-10T00:19:45;19.50;;;9.50;;
72095;SDS011;59968;51.084;16.748;2023-01-10T00:22:13;22.50;;;10.00;;
72095;SDS011;59968;51.084;16.748;2023-01-10T00:24:45;24.50;;;10.70;;
72095;SDS011;59968;51.084;16.748;2023-01-10T00:27:13;41.80;;;14.70;;
72095;SDS011;59968;51.084;16.748;2023-01-10T00:29:48;42.60;;;15.80;;
72095;SDS011;59968;51.084;16.748;2023-01-10T00:32:19;24.80;;;10.50;;
72095;SDS011;59968;51.084;16.748;2023-01-10T00:34:48;23.00;;;9.80;;
72095;SDS011;59968;51.084;16.748;2023-01-10T00:37:16;22.90;;;10.50;;
72095;SDS011;59968;51.084;16.748;2023-01-10T00:39:45;20.90;;;9.60;;
72095;SDS011;59968;51.084;16.748;2023-01-10T00:42:13;19.40;;;9.70;;
72095;SDS011;59968;51.084;16.748;2023-01-10T00:44:59;23.30;;;11.30;;
72095;SDS011;59968;51.084;16.748;2023-01-10T00:47:28;26.10;;;11.40;;
72095;SDS011;59968;51.084;16.748;2023-01-10T00:49:56;25.30;;;11.10;;
72095;SDS011;59968;51.084;16.748;2023-01-10T00:52:24;22.80;;;11.10;;
72095;SDS011;59968;51.084;16.748;2023-01-10T00:54:52;25.40;;;11.70;;
72095;SDS011;59968;51.084;16.748;2023-01-10T00:57:20;25.00;;;11.80;;
72095;SDS011;59968;51.084;16.748;2023-01-10T00:59:48;25.60;;;12.70;;
72095;SDS011;59968;51.084;16.748;2023-01-10T01:02:17;29.70;;;12.80;;
72095;SDS011;59968;51.084;16.748;2023-01-10T01:04:46;24.40;;;11.30;;
72095;SDS011;59968;51.084;16.748;2023-01-10T01:07:14;21.70;;;10.60;;
72095;SDS011;59968;51.084;16.748;2023-01-10T01:09:42;25.40;;;10.20;;
72095;SDS011;59968;51.084;16.748;2023-01-10T01:12:29;22.60;;;9.60;;
72095;SDS011;59968;51.084;16.748;2023-01-10T01:14:57;19.10;;;9.30;;
72095;SDS011;59968;51.084;16.748;2023-01-10T01:17:26;20.70;;;9.50;;
72095;SDS011;59968;51.084;16.748;2023-01-10T01:19:54;21.90;;;9.50;;
72095;SDS011;59968;51.084;16.748;2023-01-10T01:22:22;18.30;;;8.60;;
72095;SDS011;59968;51.084;16.748;2023-01-10T01:24:50;21.30;;;10.30;;
72095;SDS011;59968;51.084;16.748;2023-01-10T01:27:18;21.40;;;10.30;;
72095;SDS011;59968;51.084;16.748;2023-01-10T01:29:47;17.10;;;7.90;;
72095;SDS011;59968;51.084;16.748;2023-01-10T01:32:16;14.90;;;7.20;;
72095;SDS011;59968;51.084;16.748;2023-01-10T01:34:44;18.70;;;8.10;;
72095;SDS011;59968;51.084;16.748;2023-01-10T01:37:12;15.10;;;8.00;;
72095;SDS011;59968;51.084;16.748;2023-01-10T01:39:41;14.70;;;7.10;;
72095;SDS011;59968;51.084;16.748;2023-01-10T01:42:19;15.30;;;7.30;;
72095;SDS011;59968;51.084;16.748;2023-01-10T01:45:30;15.10;;;6.70;;
72095;SDS011;59968;51.084;16.748;2023-01-10T01:52:56;12.10;;;5.30;;
72095;SDS011;59968;51.084;16.748;2023-01-10T01:55:28;12.10;;;5.20;;
72095;SDS011;59968;51.084;16.748;2023-01-10T01:57:59;8.80;;;4.20;;
72095;SDS011;59968;51.084;16.748;2023-01-10T02:00:33;7.20;;;3.60;;
72095;SDS011;59968;51.084;16.748;2023-01-10T02:03:02;11.70;;;4.60;;
72095;SDS011;59968;51.084;16.748;2023-01-10T02:05:34;9.60;;;4.00;;
72095;SDS011;59968;51.084;16.748;2023-01-10T02:08:05;9.00;;;3.20;;
72095;SDS011;59968;51.084;16.748;2023-01-10T02:10:44;10.30;;;3.90;;
72095;SDS011;59968;51.084;16.748;2023-01-10T02:13:21;7.50;;;3.30;;
72095;SDS011;59968;51.084;16.748;2023-01-10T02:15:53;7.60;;;2.80;;
72095;SDS011;59968;51.084;16.748;2023-01-10T02:18:21;8.50;;;3.10;;
72095;SDS011;59968;51.084;16.748;2023-01-10T02:23:43;5.90;;;2.70;;
72095;SDS011;59968;51.084;16.748;2023-01-10T02:26:33;9.40;;;2.80;;
72095;SDS011;59968;51.084;16.748;2023-01-10T02:40:51;5.50;;;2.10;;
72095;SDS011;59968;51.084;16.748;2023-01-10T02:43:30;7.00;;;2.40;;
72095;SDS011;59968;51.084;16.748;2023-01-10T02:46:15;6.80;;;2.70;;
72095;SDS011;59968;51.084;16.748;2023-01-10T02:48:52;5.80;;;2.30;;
72095;SDS011;59968;51.084;16.748;2023-01-10T02:51:25;7.40;;;2.10;;
72095;SDS011;59968;51.084;16.748;2023-01-10T02:54:02;5.60;;;2.30;;
72095;SDS011;59968;51.084;16.748;2023-01-10T03:03:06;3.10;;;1.40;;
72095;SDS011;59968;51.084;16.748;2023-01-10T03:05:46;4.40;;;1.70;;
72095;SDS011;59968;51.084;16.748;2023-01-10T03:08:36;4.80;;;2.10;;
72095;SDS011;59968;51.084;16.748;2023-01-10T03:11:12;3.40;;;1.40;;
72095;SDS011;59968;51.084;16.748;2023-01-10T03:13:55;7.30;;;2.10;;
72095;SDS011;59968;51.084;16.748;2023-01-10T03:16:28;3.30;;;1.70;;
72095;SDS011;59968;51.084;16.748;2023-01-10T03:19:09;3.80;;;1.60;;
72095;SDS011;59968;51.084;16.748;2023-01-10T03:21:40;4.40;;;2.00;;
72095;SDS011;59968;51.084;16.748;2023-01-10T03:24:18;3.30;;;1.40;;
72095;SDS011;59968;51.084;16.748;2023-01-10T03:26:56;4.00;;;1.50;;
72095;SDS011;59968;51.084;16.748;2023-01-10T03:29:34;5.10;;;1.70;;
72095;SDS011;59968;51.084;16.748;2023-01-10T03:32:10;4.70;;;1.90;;
72095;SDS011;59968;51.084;16.748;2023-01-10T03:34:42;3.70;;;1.50;;
72095;SDS011;59968;51.084;16.748;2023-01-10T03:37:13;5.40;;;1.70;;
72095;SDS011;59968;51.084;16.748;2023-01-10T03:45:26;3.80;;;1.50;;
72095;SDS011;59968;51.084;16.748;2023-01-10T03:48:01;3.90;;;1.90;;
72095;SDS011;59968;51.084;16.748;2023-01-10T03:50:32;4.40;;;1.80;;
72095;SDS011;59968;51.084;16.748;2023-01-10T03:53:04;5.20;;;1.80;;
72095;SDS011;59968;51.084;16.748;2023-01-10T03:55:33;3.80;;;1.30;;
72095;SDS011;59968;51.084;16.748;2023-01-10T03:58:02;3.70;;;1.60;;
72095;SDS011;59968;51.084;16.748;2023-01-10T04:00:31;5.20;;;2.10;;
72095;SDS011;59968;51.084;16.748;2023-01-10T04:02:59;3.40;;;1.70;;
72095;SDS011;59968;51.084;16.748;2023-01-10T04:05:27;4.90;;;2.10;;
72095;SDS011;59968;51.084;16.748;2023-01-10T04:07:55;4.00;;;1.70;;
72095;SDS011;59968;51.084;16.748;2023-01-10T04:10:24;5.10;;;1.50;;
72095;SDS011;59968;51.084;16.748;2023-01-10T04:12:54;4.10;;;1.90;;
72095;SDS011;59968;51.084;16.748;2023-01-10T04:15:22;3.20;;;1.50;;
72095;SDS011;59968;51.084;16.748;2023-01-10T04:17:50;6.20;;;2.50;;
72095;SDS011;59968;51.084;16.748;2023-01-10T04:20:18;5.00;;;2.20;;
72095;SDS011;59968;51.084;16.748;2023-01-10T04:22:47;4.20;;;1.80;;
72095;SDS011;59968;51.084;16.748;2023-01-10T04:25:16;5.00;;;2.10;;
72095;SDS011;59968;51.084;16.748;2023-01-10T04:27:44;5.00;;;2.00;;
72095;SDS011;59968;51.084;16.748;2023-01-10T04:30:13;4.70;;;2.20;;
72095;SDS011;59968;51.084;16.748;2023-01-10T04:32:41;7.50;;;2.90;;
72095;SDS011;59968;51.084;16.748;2023-01-10T04:35:09;4.40;;;1.80;;
72095;SDS011;59968;51.084;16.748;2023-01-10T04:37:37;6.40;;;2.50;;
72095;SDS011;59968;51.084;16.748;2023-01-10T04:40:06;6.00;;;2.30;;
72095;SDS011;59968;51.084;16.748;2023-01-10T04:42:35;3.80;;;1.80;;
72095;SDS011;59968;51.084;16.748;2023-01-10T04:45:03;5.10;;;2.10;;
72095;SDS011;59968;51.084;16.748;2023-01-10T04:47:32;4.70;;;2.00;;
72095;SDS011;59968;51.084;16.748;2023-01-10T04:50:01;4.70;;;1.60;;
72095;SDS011;59968;51.084;16.748;2023-01-10T04:52:29;5.80;;;2.30;;
72095;SDS011;59968;51.084;16.748;2023-01-10T04:54:57;8.10;;;3.30;;
72095;SDS011;59968;51.084;16.748;2023-01-10T04:57:25;7.40;;;3.20;;
72095;SDS011;59968;51.084;16.748;2023-01-10T04:59:54;6.70;;;2.40;;
72095;SDS011;59968;51.084;16.748;2023-01-10T05:02:22;6.80;;;2.80;;
72095;SDS011;59968;51.084;16.748;2023-01-10T05:04:51;8.60;;;3.90;;
72095;SDS011;59968;51.084;16.748;2023-01-10T05:07:19;8.20;;;3.10;;
72095;SDS011;59968;51.084;16.748;2023-01-10T05:09:48;7.60;;;3.00;;
72095;SDS011;59968;51.084;16.748;2023-01-10T05:12:16;7.00;;;2.90;;
72095;SDS011;59968;51.084;16.748;2023-01-10T05:14:44;9.30;;;4.20;;
72095;SDS011;59968;51.084;16.748;2023-01-10T05:17:12;7.90;;;3.40;;
72095;SDS011;59968;51.084;16.748;2023-01-10T05:19:41;6.50;;;3.10;;
72095;SDS011;59968;51.084;16.748;2023-01-10T05:22:09;7.70;;;2.90;;
72095;SDS011;59968;51.084;16.748;2023-01-10T05:24:37;6.20;;;2.70;;
72095;SDS011;59968;51.084;16.748;2023-01-10T05:27:06;6.70;;;2.70;;
72095;SDS011;59968;51.084;16.748;2023-01-10T05:29:34;6.30;;;1.90;;
72095;SDS011;59968;51.084;16.748;2023-01-10T05:32:02;6.70;;;2.20;;
72095;SDS011;59968;51.084;16.748;2023-01-10T05:34:32;7.10;;;3.20;;
72095;SDS011;59968;51.084;16.748;2023-01-10T05:37:00;8.50;;;3.10;;
72095;SDS011;59968;51.084;16.748;2023-01-10T05:39:29;8.10;;;3.00;;
72095;SDS011;59968;51.084;16.748;2023-01-10T05:41:57;6.10;;;2.40;;
72095;SDS011;59968;51.084;16.748;2023-01-10T05:44:26;6.40;;;3.40;;
72095;SDS011;59968;51.084;16.748;2023-01-10T05:46:54;5.20;;;2.60;;
72095;SDS011;59968;51.084;16.748;2023-01-10T05:49:23;7.00;;;2.50;;
72095;SDS011;59968;51.084;16.748;2023-01-10T05:51:52;6.80;;;3.20;;
72095;SDS011;59968;51.084;16.748;2023-01-10T05:54:22;4.60;;;2.10;;
72095;SDS011;59968;51.084;16.748;2023-01-10T05:56:51;4.50;;;2.20;;
72095;SDS011;59968;51.084;16.748;2023-01-10T05:59:20;4.40;;;2.10;;
72095;SDS011;59968;51.084;16.748;2023-01-10T06:01:55;6.10;;;2.90;;
72095;SDS011;59968;51.084;16.748;2023-01-10T06:04:23;3.80;;;1.50;;
72095;SDS011;59968;51.084;16.748;2023-01-10T06:06:51;5.40;;;2.30;;
72095;SDS011;59968;51.084;16.748;2023-01-10T06:09:20;7.10;;;2.80;;
72095;SDS011;59968;51.084;16.748;2023-01-10T06:11:48;7.60;;;3.10;;
72095;SDS011;59968;51.084;16.748;2023-01-10T06:14:16;5.20;;;2.10;;
72095;SDS011;59968;51.084;16.748;2023-01-10T06:16:46;6.20;;;2.70;;
72095;SDS011;59968;51.084;16.748;2023-01-10T06:19:15;6.40;;;2.80;;
72095;SDS011;59968;51.084;16.748;2023-01-10T06:21:44;7.80;;;3.30;;
72095;SDS011;59968;51.084;16.748;2023-01-10T06:24:12;6.30;;;2.50;;
72095;SDS011;59968;51.084;16.748;2023-01-10T06:26:40;5.30;;;2.20;;
72095;SDS011;59968;51.084;16.748;2023-01-10T06:29:09;6.70;;;2.50;;
72095;SDS011;59968;51.084;16.748;2023-01-10T06:31:37;6.20;;;2.40;;
72095;SDS011;59968;51.084;16.748;2023-01-10T06:34:05;4.00;;;1.90;;
72095;SDS011;59968;51.084;16.748;2023-01-10T06:36:34;6.10;;;2.20;;
72095;SDS011;59968;51.084;16.748;2023-01-10T06:39:02;5.70;;;2.40;;
72095;SDS011;59968;51.084;16.748;2023-01-10T06:41:30;5.60;;;2.40;;
72095;SDS011;59968;51.084;16.748;2023-01-10T06:43:59;6.10;;;2.20;;
72095;SDS011;59968;51.084;16.748;2023-01-10T06:46:27;5.60;;;2.70;;
72095;SDS011;59968;51.084;16.748;2023-01-10T06:48:55;6.30;;;2.90;;
72095;SDS011;59968;51.084;16.748;2023-01-10T06:51:24;6.50;;;2.90;;
72095;SDS011;59968;51.084;16.748;2023-01-10T06:53:52;8.10;;;2.70;;
72095;SDS011;59968;51.084;16.748;2023-01-10T06:56:21;5.90;;;2.60;;
72095;SDS011;59968;51.084;16.748;2023-01-10T06:58:49;6.00;;;1.90;;
72095;SDS011;59968;51.084;16.748;2023-01-10T07:01:18;5.80;;;2.30;;
72095;SDS011;59968;51.084;16.748;2023-01-10T07:03:48;8.30;;;2.30;;
72095;SDS011;59968;51.084;16.748;2023-01-10T07:06:17;3.20;;;1.70;;
72095;SDS011;59968;51.084;16.748;2023-01-10T07:08:46;9.20;;;2.70;;
72095;SDS011;59968;51.084;16.748;2023-01-10T07:11:15;5.90;;;2.40;;
72095;SDS011;59968;51.084;16.748;2023-01-10T07:13:44;6.40;;;2.70;;
72095;SDS011;59968;51.084;16.748;2023-01-10T07:16:13;5.00;;;2.20;;
72095;SDS011;59968;51.084;16.748;2023-01-10T07:18:43;6.90;;;2.90;;
72095;SDS011;59968;51.084;16.748;2023-01-10T07:21:11;5.40;;;2.30;;
72095;SDS011;59968;51.084;16.748;2023-01-10T07:23:41;5.10;;;2.40;;
72095;SDS011;59968;51.084;16.748;2023-01-10T07:26:10;6.70;;;2.50;;
72095;SDS011;59968;51.084;16.748;2023-01-10T07:28:46;5.00;;;2.40;;
72095;SDS011;59968;51.084;16.748;2023-01-10T07:31:18;6.10;;;2.90;;
72095;SDS011;59968;51.084;16.748;2023-01-10T07:33:48;5.70;;;2.50;;
72095;SDS011;59968;51.084;16.748;2023-01-10T07:36:18;9.70;;;3.00;;
72095;SDS011;59968;51.084;16.748;2023-01-10T07:38:47;8.40;;;2.80;;
72095;SDS011;59968;51.084;16.748;2023-01-10T07:41:16;8.60;;;3.30;;
72095;SDS011;59968;51.084;16.748;2023-01-10T07:43:44;8.00;;;3.00;;
72095;SDS011;59968;51.084;16.748;2023-01-10T07:46:13;6.50;;;2.90;;
72095;SDS011;59968;51.084;16.748;2023-01-10T07:48:42;7.10;;;3.10;;
72095;SDS011;59968;51.084;16.748;2023-01-10T07:51:10;7.60;;;2.50;;
72095;SDS011;59968;51.084;16.748;2023-01-10T07:53:39;6.00;;;2.70;;
72095;SDS011;59968;51.084;16.748;2023-01-10T07:56:13;8.40;;;2.80;;
72095;SDS011;59968;51.084;16.748;2023-01-10T07:58:42;4.60;;;2.20;;
72095;SDS011;59968;51.084;16.748;2023-01-10T08:01:10;10.40;;;2.90;;
72095;SDS011;59968;51.084;16.748;2023-01-10T08:03:39;6.30;;;2.50;;
72095;SDS011;59968;51.084;16.748;2023-01-10T08:06:10;5.50;;;2.30;;
72095;SDS011;59968;51.084;16.748;2023-01-10T08:08:38;5.20;;;2.00;;
72095;SDS011;59968;51.084;16.748;2023-01-10T08:11:07;4.70;;;1.90;;
72095;SDS011;59968;51.084;16.748;2023-01-10T08:13:36;7.60;;;2.70;;
72095;SDS011;59968;51.084;16.748;2023-01-10T08:16:05;5.20;;;2.20;;
72095;SDS011;59968;51.084;16.748;2023-01-10T08:18:35;6.00;;;2.70;;
72095;SDS011;59968;51.084;16.748;2023-01-10T08:21:08;8.60;;;2.90;;
72095;SDS011;59968;51.084;16.748;2023-01-10T08:23:37;5.60;;;2.20;;
72095;SDS011;59968;51.084;16.748;2023-01-10T08:26:08;7.00;;;2.60;;
72095;SDS011;59968;51.084;16.748;2023-01-10T08:28:37;6.40;;;2.80;;
72095;SDS011;59968;51.084;16.748;2023-01-10T08:31:06;6.00;;;2.30;;
72095;SDS011;59968;51.084;16.748;2023-01-10T08:33:37;5.20;;;2.20;;
72095;SDS011;59968;51.084;16.748;2023-01-10T08:36:18;6.90;;;2.30;;
72095;SDS011;59968;51.084;16.748;2023-01-10T08:38:49;5.80;;;2.20;;
72095;SDS011;59968;51.084;16.748;2023-01-10T08:41:18;5.10;;;2.20;;
72095;SDS011;59968;51.084;16.748;2023-01-10T08:43:50;5.90;;;2.60;;
72095;SDS011;59968;51.084;16.748;2023-01-10T08:46:19;4.50;;;2.40;;
72095;SDS011;59968;51.084;16.748;2023-01-10T08:48:48;5.80;;;2.60;;
72095;SDS011;59968;51.084;16.748;2023-01-10T08:51:17;7.50;;;2.20;;
72095;SDS011;59968;51.084;16.748;2023-01-10T08:53:46;5.40;;;2.60;;
72095;SDS011;59968;51.084;16.748;2023-01-10T08:56:15;5.10;;;2.00;;
72095;SDS011;59968;51.084;16.748;2023-01-10T08:58:43;5.80;;;2.20;;
72095;SDS011;59968;51.084;16.748;2023-01-10T09:01:12;7.90;;;2.40;;
72095;SDS011;59968;51.084;16.748;2023-01-10T09:03:41;6.20;;;2.50;;
72095;SDS011;59968;51.084;16.748;2023-01-10T09:06:10;6.40;;;1.90;;
72095;SDS011;59968;51.084;16.748;2023-01-10T09:08:39;7.10;;;2.50;;
72095;SDS011;59968;51.084;16.748;2023-01-10T09:11:08;6.00;;;2.60;;
72095;SDS011;59968;51.084;16.748;2023-01-10T09:13:37;5.60;;;2.30;;
72095;SDS011;59968;51.084;16.748;2023-01-10T09:16:08;5.30;;;2.00;;
72095;SDS011;59968;51.084;16.748;2023-01-10T09:18:38;7.10;;;2.30;;
72095;SDS011;59968;51.084;16.748;2023-01-10T09:21:10;5.90;;;2.40;;
72095;SDS011;59968;51.084;16.748;2023-01-10T09:23:39;8.40;;;2.50;;
72095;SDS011;59968;51.084;16.748;2023-01-10T09:26:08;4.10;;;2.00;;
72095;SDS011;59968;51.084;16.748;2023-01-10T09:28:37;5.40;;;2.20;;
72095;SDS011;59968;51.084;16.748;2023-01-10T09:31:07;6.60;;;2.20;;
72095;SDS011;59968;51.084;16.748;2023-01-10T09:33:37;4.50;;;1.80;;
72095;SDS011;59968;51.084;16.748;2023-01-10T09:36:14;7.20;;;2.50;;
72095;SDS011;59968;51.084;16.748;2023-01-10T09:38:43;4.80;;;2.30;;
72095;SDS011;59968;51.084;16.748;2023-01-10T09:52:36;7.10;;;2.90;;
72095;SDS011;59968;51.084;16.748;2023-01-10T09:55:24;8.60;;;2.80;;
72095;SDS011;59968;51.084;16.748;2023-01-10T09:57:59;8.80;;;3.50;;
72095;SDS011;59968;51.084;16.748;2023-01-10T10:00:55;6.30;;;2.40;;
72095;SDS011;59968;51.084;16.748;2023-01-10T10:06:51;9.10;;;3.50;;
72095;SDS011;59968;51.084;16.748;2023-01-10T10:09:23;9.90;;;3.60;;
72095;SDS011;59968;51.084;16.748;2023-01-10T10:20:29;9.20;;;3.60;;
72095;SDS011;59968;51.084;16.748;2023-01-10T10:23:16;8.90;;;4.10;;
72095;SDS011;59968;51.084;16.748;2023-01-10T10:26:18;8.70;;;3.10;;
72095;SDS011;59968;51.084;16.748;2023-01-10T10:37:15;8.70;;;3.50;;
72095;SDS011;59968;51.084;16.748;2023-01-10T10:40:10;8.00;;;3.90;;
72095;SDS011;59968;51.084;16.748;2023-01-10T10:42:46;11.70;;;3.50;;
72095;SDS011;59968;51.084;16.748;2023-01-10T10:48:14;9.60;;;3.90;;
72095;SDS011;59968;51.084;16.748;2023-01-10T10:50:49;12.20;;;4.90;;
72095;SDS011;59968;51.084;16.748;2023-01-10T10:53:19;6.80;;;3.00;;
72095;SDS011;59968;51.084;16.748;2023-01-10T10:55:48;9.10;;;3.00;;
72095;SDS011;59968;51.084;16.748;2023-01-10T10:58:17;10.40;;;3.90;;
72095;SDS011;59968;51.084;16.748;2023-01-10T11:00:46;8.90;;;3.90;;
72095;SDS011;59968;51.084;16.748;2023-01-10T11:03:24;10.60;;;3.40;;
72095;SDS011;59968;51.084;16.748;2023-01-10T11:06:00;7.90;;;3.10;;
72095;SDS011;59968;51.084;16.748;2023-01-10T11:08:30;9.70;;;3.50;;
72095;SDS011;59968;51.084;16.748;2023-01-10T11:10:59;11.10;;;4.00;;
72095;SDS011;59968;51.084;16.748;2023-01-10T11:16:01;9.50;;;2.80;;
72095;SDS011;59968;51.084;16.748;2023-01-10T11:18:32;10.70;;;4.00;;
72095;SDS011;59968;51.084;16.748;2023-01-10T11:31:54;6.70;;;2.80;;
72095;SDS011;59968;51.084;16.748;2023-01-10T11:34:28;9.90;;;3.70;;
72095;SDS011;59968;51.084;16.748;2023-01-10T11:37:01;9.10;;;3.50;;
72095;SDS011;59968;51.084;16.748;2023-01-10T11:39:32;9.10;;;3.70;;
72095;SDS011;59968;51.084;16.748;2023-01-10T11:44:51;6.80;;;2.80;;
72095;SDS011;59968;51.084;16.748;2023-01-10T11:47:19;6.80;;;2.70;;
72095;SDS011;59968;51.084;16.748;2023-01-10T11:49:48;6.70;;;2.90;;
72095;SDS011;59968;51.084;16.748;2023-01-10T11:52:20;8.20;;;3.60;;
72095;SDS011;59968;51.084;16.748;2023-01-10T11:54:57;8.00;;;3.10;;
72095;SDS011;59968;51.084;16.748;2023-01-10T11:57:29;7.60;;;2.80;;
72095;SDS011;59968;51.084;16.748;2023-01-10T12:00:00;7.40;;;2.60;;
72095;SDS011;59968;51.084;16.748;2023-01-10T12:02:40;7.90;;;2.90;;
72095;SDS011;59968;51.084;16.748;2023-01-10T12:05:12;11.10;;;2.80;;
72095;SDS011;59968;51.084;16.748;2023-01-10T12:07:55;7.20;;;3.00;;
72095;SDS011;59968;51.084;16.748;2023-01-10T12:10:26;8.40;;;2.90;;
72095;SDS011;59968;51.084;16.748;2023-01-10T12:12:57;9.90;;;3.30;;
72095;SDS011;59968;51.084;16.748;2023-01-10T12:15:28;9.50;;;3.70;;
72095;SDS011;59968;51.084;16.748;2023-01-10T12:18:00;7.10;;;2.50;;
72095;SDS011;59968;51.084;16.748;2023-01-10T12:20:33;8.40;;;3.30;;
72095;SDS011;59968;51.084;16.748;2023-01-10T12:23:11;10.60;;;3.90;;
72095;SDS011;59968;51.084;16.748;2023-01-10T12:25:44;10.20;;;3.70;;
72095;SDS011;59968;51.084;16.748;2023-01-10T12:28:21;9.60;;;3.80;;
72095;SDS011;59968;51.084;16.748;2023-01-10T12:30:52;10.90;;;3.50;;
72095;SDS011;59968;51.084;16.748;2023-01-10T12:33:26;8.70;;;3.80;;
72095;SDS011;59968;51.084;16.748;2023-01-10T12:38:49;9.40;;;2.60;;
72095;SDS011;59968;51.084;16.748;2023-01-10T12:50:04;6.50;;;2.90;;
72095;SDS011;59968;51.084;16.748;2023-01-10T12:52:43;9.20;;;2.60;;
72095;SDS011;59968;51.084;16.748;2023-01-10T12:55:20;6.40;;;2.20;;
72095;SDS011;59968;51.084;16.748;2023-01-10T12:57:54;6.60;;;3.30;;
72095;SDS011;59968;51.084;16.748;2023-01-10T13:00:35;7.70;;;3.00;;
72095;SDS011;59968;51.084;16.748;2023-01-10T13:03:18;8.20;;;3.20;;
72095;SDS011;59968;51.084;16.748;2023-01-10T13:05:48;6.50;;;2.60;;
72095;SDS011;59968;51.084;16.748;2023-01-10T13:08:23;6.90;;;3.10;;
72095;SDS011;59968;51.084;16.748;2023-01-10T13:10:56;6.60;;;2.70;;
72095;SDS011;59968;51.084;16.748;2023-01-10T13:21:40;6.00;;;2.30;;
72095;SDS011;59968;51.084;16.748;2023-01-10T13:26:59;8.80;;;3.60;;
72095;SDS011;59968;51.084;16.748;2023-01-10T13:29:36;8.10;;;3.20;;
72095;SDS011;59968;51.084;16.748;2023-01-10T13:32:18;9.80;;;3.50;;
72095;SDS011;59968;51.084;16.748;2023-01-10T13:34:49;7.90;;;2.40;;
72095;SDS011;59968;51.084;16.748;2023-01-10T13:39:53;9.20;;;3.80;;
72095;SDS011;59968;51.084;16.748;2023-01-10T14:00:46;9.60;;;3.60;;
72095;SDS011;59968;51.084;16.748;2023-01-10T14:08:57;8.60;;;4.30;;
72095;SDS011;59968;51.084;16.748;2023-01-10T14:11:51;10.00;;;4.50;;
72095;SDS011;59968;51.084;16.748;2023-01-10T14:14:32;10.90;;;3.60;;
72095;SDS011;59968;51.084;16.748;2023-01-10T14:17:11;11.80;;;6.60;;
72095;SDS011;59968;51.084;16.748;2023-01-10T14:22:40;8.20;;;4.30;;
72095;SDS011;59968;51.084;16.748;2023-01-10T14:25:24;11.40;;;3.90;;
72095;SDS011;59968;51.084;16.748;2023-01-10T14:27:54;10.10;;;4.10;;
72095;SDS011;59968;51.084;16.748;2023-01-10T14:30:33;10.60;;;4.40;;
72095;SDS011;59968;51.084;16.748;2023-01-10T14:35:44;23.00;;;12.10;;
72095;SDS011;59968;51.084;16.748;2023-01-10T14:38:17;9.20;;;4.30;;
72095;SDS011;59968;51.084;16.748;2023-01-10T14:40:51;10.20;;;4.70;;
72095;SDS011;59968;51.084;16.748;2023-01-10T14:43:26;7.20;;;3.30;;
72095;SDS011;59968;51.084;16.748;2023-01-10T14:46:03;9.40;;;3.80;;
72095;SDS011;59968;51.084;16.748;2023-01-10T14:48:39;5.70;;;2.70;;
72095;SDS011;59968;51.084;16.748;2023-01-10T14:51:26;9.10;;;4.10;;
72095;SDS011;59968;51.084;16.748;2023-01-10T14:54:03;7.30;;;3.30;;
72095;SDS011;59968;51.084;16.748;2023-01-10T14:56:48;6.60;;;3.60;;
72095;SDS011;59968;51.084;16.748;2023-01-10T15:02:12;13.40;;;5.10;;
72095;SDS011;59968;51.084;16.748;2023-01-10T15:04:47;12.90;;;4.40;;
72095;SDS011;59968;51.084;16.748;2023-01-10T15:07:22;13.20;;;4.50;;
72095;SDS011;59968;51.084;16.748;2023-01-10T15:09:53;10.10;;;4.90;;
72095;SDS011;59968;51.084;16.748;2023-01-10T15:12:29;9.30;;;3.80;;
72095;SDS011;59968;51.084;16.748;2023-01-10T15:15:11;11.20;;;5.10;;
72095;SDS011;59968;51.084;16.748;2023-01-10T15:17:46;8.60;;;4.50;;
72095;SDS011;59968;51.084;16.748;2023-01-10T15:20:17;13.80;;;5.30;;
72095;SDS011;59968;51.084;16.748;2023-01-10T15:22:53;8.80;;;3.40;;
72095;SDS011;59968;51.084;16.748;2023-01-10T15:27:58;10.60;;;4.20;;
72095;SDS011;59968;51.084;16.748;2023-01-10T15:30:28;10.60;;;4.00;;
72095;SDS011;59968;51.084;16.748;2023-01-10T15:33:07;9.90;;;3.90;;
72095;SDS011;59968;51.084;16.748;2023-01-10T15:35:41;9.20;;;4.10;;
72095;SDS011;59968;51.084;16.748;2023-01-10T15:38:18;8.90;;;3.80;;
72095;SDS011;59968;51.084;16.748;2023-01-10T15:40:55;10.80;;;4.30;;
72095;SDS011;59968;51.084;16.748;2023-01-10T15:43:26;8.20;;;4.00;;
72095;SDS011;59968;51.084;16.748;2023-01-10T15:45:57;7.30;;;3.80;;
72095;SDS011;59968;51.084;16.748;2023-01-10T15:48:40;9.50;;;4.40;;
72095;SDS011;59968;51.084;16.748;2023-01-10T15:51:23;8.60;;;3.80;;
72095;SDS011;59968;51.084;16.748;2023-01-10T15:53:55;11.20;;;4.70;;
72095;SDS011;59968;51.084;16.748;2023-01-10T15:56:26;9.20;;;5.10;;
72095;SDS011;59968;51.084;16.748;2023-01-10T15:59:18;12.70;;;5.10;;
72095;SDS011;59968;51.084;16.748;2023-01-10T16:04:50;20.80;;;10.00;;
72095;SDS011;59968;51.084;16.748;2023-01-10T16:07:28;42.10;;;20.80;;
72095;SDS011;59968;51.084;16.748;2023-01-10T16:10:02;49.80;;;21.70;;
72095;SDS011;59968;51.084;16.748;2023-01-10T16:12:44;89.90;;;37.40;;
72095;SDS011;59968;51.084;16.748;2023-01-10T16:15:32;94.60;;;37.50;;
72095;SDS011;59968;51.084;16.748;2023-01-10T16:18:03;105.40;;;40.80;;
72095;SDS011;59968;51.084;16.748;2023-01-10T16:20:39;73.10;;;30.60;;
72095;SDS011;59968;51.084;16.748;2023-01-10T16:23:20;76.30;;;31.00;;
72095;SDS011;59968;51.084;16.748;2023-01-10T16:25:53;42.50;;;17.90;;
72095;SDS011;59968;51.084;16.748;2023-01-10T16:28:25;47.50;;;21.40;;
72095;SDS011;59968;51.084;16.748;2023-01-10T16:30:58;52.60;;;23.80;;
72095;SDS011;59968;51.084;16.748;2023-01-10T16:33:28;109.80;;;44.20;;
72095;SDS011;59968;51.084;16.748;2023-01-10T16:35:57;29.70;;;14.30;;
72095;SDS011;59968;51.084;16.748;2023-01-10T16:38:28;35.70;;;15.40;;
72095;SDS011;59968;51.084;16.748;2023-01-10T16:41:00;24.40;;;15.60;;
72095;SDS011;59968;51.084;16.748;2023-01-10T16:43:50;17.60;;;10.40;;
72095;SDS011;59968;51.084;16.748;2023-01-10T16:46:21;27.40;;;17.80;;
72095;SDS011;59968;51.084;16.748;2023-01-10T16:48:51;16.80;;;9.60;;
72095;SDS011;59968;51.084;16.748;2023-01-10T16:51:23;24.50;;;13.80;;
72095;SDS011;59968;51.084;16.748;2023-01-10T16:53:57;10.80;;;5.10;;
72095;SDS011;59968;51.084;16.748;2023-01-10T16:56:27;11.30;;;5.30;;
72095;SDS011;59968;51.084;16.748;2023-01-10T16:58:56;12.80;;;6.00;;
72095;SDS011;59968;51.084;16.748;2023-01-10T17:01:26;9.10;;;4.50;;
72095;SDS011;59968;51.084;16.748;2023-01-10T17:04:04;9.60;;;5.20;;
72095;SDS011;59968;51.084;16.748;2023-01-10T17:06:34;10.70;;;5.70;;
72095;SDS011;59968;51.084;16.748;2023-01-10T17:09:04;19.50;;;8.70;;
72095;SDS011;59968;51.084;16.748;2023-01-10T17:11:35;18.80;;;8.20;;
72095;SDS011;59968;51.084;16.748;2023-01-10T17:14:10;20.80;;;7.70;;
72095;SDS011;59968;51.084;16.748;2023-01-10T17:16:41;22.50;;;7.00;;
72095;SDS011;59968;51.084;16.748;2023-01-10T17:19:11;18.50;;;6.20;;
72095;SDS011;59968;51.084;16.748;2023-01-10T17:21:40;19.70;;;7.00;;
72095;SDS011;59968;51.084;16.748;2023-01-10T17:24:10;18.40;;;6.20;;